Time;durP1;ratioP1;P1;durP2;ratioP2;P2;SDS_P1;SDS_P2;PMS_P1;PMS_P2;Temp;Humidity;BMP_temperature;BMP_pressure;BME280_temperature;BME280_humidity;BME280_pressure;Samples;Min_cycle;Max_cycle;Signal;HPM_P1;HPM_P2
2021/10/16 00:00:13;;;;;;;24.23;9.43;;;;;;;8.61;64.42;99404.06;4807785;29;20058;-82
2021/10/16 00:02:39;;;;;;;20.67;9.70;;;;;;;8.68;64.30;99398.25;4797865;29;20047;-78
2021/10/16 00:05:06;;;;;;;19.77;9.75;;;;;;;8.76;64.15;99392.09;4798102;29;20070;-74
2021/10/16 00:07:32;;;;;;;24.60;10.02;;;;;;;8.81;64.18;99408.38;4802526;29;20050;-91
2021/10/16 00:09:59;;;;;;;17.88;9.18;;;;;;;8.82;64.10;99390.09;4806642;29;20050;-91
2021/10/16 00:12:25;;;;;;;18.40;9.70;;;;;;;8.87;64.10;99390.00;4803245;29;20054;-74
2021/10/16 00:14:53;;;;;;;28.50;10.07;;;;;;;8.90;63.84;99384.75;4801470;29;20099;-76
2021/10/16 00:17:19;;;;;;;21.75;9.05;;;;;;;8.92;63.79;99387.19;4799432;29;20047;-91
2021/10/16 00:19:45;;;;;;;19.17;9.80;;;;;;;9.00;63.58;99388.41;4803690;29;20047;-74
2021/10/16 00:22:11;;;;;;;19.83;10.15;;;;;;;9.01;63.83;99396.31;4800648;29;20075;-92
2021/10/16 00:24:39;;;;;;;20.52;9.63;;;;;;;9.00;63.91;99381.03;4798134;29;20387;-92
2021/10/16 00:27:05;;;;;;;21.73;9.75;;;;;;;9.02;63.76;99380.75;4797621;29;20100;-77
2021/10/16 00:29:33;;;;;;;21.02;9.55;;;;;;;9.06;63.47;99389.94;4800209;29;20050;-76
2021/10/16 00:31:59;;;;;;;26.52;9.27;;;;;;;9.11;63.80;99387.94;4795241;29;20107;-92
2021/10/16 00:34:25;;;;;;;21.83;8.57;;;;;;;9.12;63.61;99381.34;4807838;29;20086;-77
2021/10/16 00:36:51;;;;;;;18.23;8.15;;;;;;;8.97;63.46;99365.28;4809675;29;20071;-81
2021/10/16 00:39:18;;;;;;;18.15;9.38;;;;;;;9.06;63.51;99366.19;4813102;29;20046;-89
2021/10/16 00:41:44;;;;;;;19.40;9.60;;;;;;;9.15;63.60;99385.41;4804644;29;20123;-91
2021/10/16 00:44:22;;;;;;;19.42;8.98;;;;;;;9.18;63.50;99388.34;4801742;29;20035;-84
2021/10/16 00:46:53;;;;;;;17.38;8.70;;;;;;;9.14;63.61;99364.72;4770537;29;20520;-74
2021/10/16 00:49:19;;;;;;;22.25;10.23;;;;;;;9.06;63.55;99363.47;4787385;29;20057;-92
2021/10/16 00:51:47;;;;;;;24.60;10.00;;;;;;;9.20;63.81;99377.13;4784975;29;20203;-91
2021/10/16 00:54:14;;;;;;;25.53;9.63;;;;;;;9.18;63.86;99382.88;4794074;29;20058;-92
2021/10/16 00:56:44;;;;;;;22.80;10.57;;;;;;;9.14;64.08;99384.59;4794623;29;20131;-91
2021/10/16 00:59:11;;;;;;;22.75;10.05;;;;;;;9.14;64.01;99383.81;4795868;29;20300;-78
2021/10/16 01:01:40;;;;;;;25.83;13.20;;;;;;;9.15;64.23;99386.22;4776042;29;20126;-76
2021/10/16 01:04:06;;;;;;;22.98;11.13;;;;;;;9.11;64.20;99366.13;4796806;29;20494;-83
2021/10/16 01:06:39;;;;;;;22.15;11.40;;;;;;;9.10;64.21;99382.75;4788666;29;20073;-91
2021/10/16 01:09:09;;;;;;;22.75;10.70;;;;;;;9.11;64.23;99385.22;4794211;29;20046;-73
2021/10/16 01:11:46;;;;;;;21.67;9.68;;;;;;;9.11;64.08;99387.13;4800262;29;20126;-88
2021/10/16 01:14:12;;;;;;;20.93;10.17;;;;;;;9.11;64.46;99385.22;4803931;29;20051;-77
2021/10/16 01:16:41;;;;;;;26.95;10.70;;;;;;;9.12;64.24;99394.19;4781121;29;20426;-74
2021/10/16 01:19:12;;;;;;;22.65;11.50;;;;;;;9.10;64.15;99383.56;4794060;29;20081;-85
2021/10/16 01:21:48;;;;;;;22.52;9.63;;;;;;;9.12;64.14;99383.28;4777471;29;20054;-74
2021/10/16 01:24:16;;;;;;;22.15;9.90;;;;;;;9.16;63.97;99387.03;4792360;29;20046;-75
2021/10/16 01:26:45;;;;;;;24.38;10.95;;;;;;;9.17;63.84;99377.72;4795285;29;20059;-74
2021/10/16 01:29:22;;;;;;;22.77;11.10;;;;;;;9.16;63.55;99379.63;4788496;29;20043;-83
2021/10/16 01:31:49;;;;;;;21.20;10.27;;;;;;;9.24;63.70;99367.25;4804990;29;20047;-74
2021/10/16 01:34:14;;;;;;;22.75;11.00;;;;;;;9.26;63.62;99367.72;4789555;29;20101;-86
2021/10/16 01:36:47;;;;;;;26.15;11.02;;;;;;;9.29;63.32;99358.94;4798879;29;20046;-89
2021/10/16 01:39:16;;;;;;;21.98;11.07;;;;;;;9.32;63.40;99362.97;4798530;29;20051;-85
2021/10/16 01:41:45;;;;;;;24.67;10.90;;;;;;;9.34;63.45;99360.78;4778937;29;20507;-90
2021/10/16 01:44:14;;;;;;;21.50;11.05;;;;;;;9.30;63.45;99355.09;4794531;29;20061;-74
2021/10/16 01:46:41;;;;;;;26.77;10.25;;;;;;;9.28;63.46;99351.06;4784114;29;20042;-86
2021/10/16 01:49:15;;;;;;;19.77;10.15;;;;;;;9.30;63.62;99357.81;4774334;29;20050;-89
2021/10/16 01:51:46;;;;;;;20.77;10.13;;;;;;;9.26;63.58;99348.63;4793689;29;20051;-91
2021/10/16 01:54:13;;;;;;;19.13;9.77;;;;;;;9.33;63.54;99346.31;4770276;29;20039;-84
2021/10/16 01:56:49;;;;;;;26.33;10.43;;;;;;;9.29;63.88;99337.13;4772466;29;20053;-85
2021/10/16 01:59:20;;;;;;;22.10;10.30;;;;;;;9.36;63.72;99353.06;4774941;29;20315;-84
2021/10/16 02:02:05;;;;;;;23.20;10.60;;;;;;;9.16;63.85;99314.19;4769861;29;20052;-84
2021/10/16 02:04:37;;;;;;;19.55;10.68;;;;;;;9.33;63.89;99343.56;4771540;29;20055;-89
2021/10/16 02:07:04;;;;;;;22.92;10.15;;;;;;;9.33;63.96;99331.84;4780828;29;20429;-84
2021/10/16 02:09:33;;;;;;;26.25;10.02;;;;;;;9.28;64.01;99321.88;4783837;29;20057;-86
2021/10/16 02:12:00;;;;;;;20.10;9.80;;;;;;;9.09;63.90;99296.63;4743368;29;20055;-91
2021/10/16 02:14:26;;;;;;;24.40;10.68;;;;;;;9.30;64.06;99327.00;4773310;29;20508;-85
2021/10/16 02:16:58;;;;;;;22.40;10.02;;;;;;;9.29;64.33;99325.41;4764448;29;20051;-84
2021/10/16 02:19:27;;;;;;;23.52;9.43;;;;;;;9.12;64.41;99299.53;4782809;29;20038;-90
2021/10/16 02:21:55;;;;;;;23.00;8.45;;;;;;;9.16;64.27;99306.00;4772479;29;20047;-88
2021/10/16 02:24:23;;;;;;;19.52;9.45;;;;;;;9.26;64.27;99320.56;4787314;29;20051;-84
2021/10/16 02:26:50;;;;;;;25.10;10.07;;;;;;;9.22;64.38;99312.16;4764364;29;20563;-84
2021/10/16 02:29:20;;;;;;;20.67;9.35;;;;;;;9.14;64.29;99308.25;4784324;29;20050;-85
2021/10/16 02:31:59;;;;;;;22.58;10.90;;;;;;;9.11;64.58;99299.88;4804146;29;20079;-88
2021/10/16 02:34:26;;;;;;;21.35;9.88;;;;;;;9.31;64.51;99340.38;4801233;29;20043;-86
2021/10/16 02:36:57;;;;;;;21.05;9.80;;;;;;;9.29;64.11;99311.75;4804767;29;20062;-87
2021/10/16 02:39:24;;;;;;;;;;;;;;;9.34;64.15;99330.75;4790400;29;20063;-86
2021/10/16 02:41:51;;;;;;;21.13;10.20;;;;;;;9.40;63.92;99333.09;4805351;29;19925;-92
2021/10/16 02:44:17;;;;;;;21.53;9.87;;;;;;;9.35;64.09;99316.81;4771967;29;20300;-91
2021/10/16 02:46:46;;;;;;;24.63;10.55;;;;;;;9.34;64.00;99317.94;4787697;30;20297;-89
2021/10/16 02:49:13;;;;;;;17.92;9.63;;;;;;;9.10;63.99;99269.03;4790537;29;20043;-92
2021/10/16 02:51:39;;;;;;;23.83;11.30;;;;;;;9.41;63.83;99309.34;4804985;29;20436;-92
2021/10/16 02:54:05;;;;;;;25.93;11.57;;;;;;;9.51;63.76;99317.31;4789570;29;20074;-87
2021/10/16 02:56:32;;;;;;;23.25;11.45;;;;;;;9.39;63.91;99300.63;4775147;29;20405;-93
2021/10/16 02:59:11;;;;;;;28.08;11.48;;;;;;;9.50;63.82;99321.13;4776306;29;20039;-88
2021/10/16 03:01:54;;;;;;;24.10;11.10;;;;;;;9.45;63.67;99313.06;4805396;29;20049;-86
2021/10/16 03:04:27;;;;;;;22.48;9.65;;;;;;;9.47;63.54;99305.38;4803927;29;20059;-92
2021/10/16 03:06:56;;;;;;;21.58;10.57;;;;;;;9.52;63.55;99304.47;4805996;29;20095;-90
2021/10/16 03:09:24;;;;;;;21.85;10.70;;;;;;;9.50;63.60;99304.75;4807286;29;20050;-91
2021/10/16 03:11:52;;;;;;;21.05;10.35;;;;;;;9.42;63.58;99286.38;4792267;29;20050;-92
2021/10/16 03:14:18;;;;;;;24.33;11.07;;;;;;;9.61;63.17;99317.06;4808583;29;20060;-91
2021/10/16 03:16:50;;;;;;;19.42;9.93;;;;;;;9.63;63.07;99314.88;4792732;29;20459;-86
2021/10/16 03:19:22;;;;;;;22.17;10.38;;;;;;;9.50;63.42;99288.38;4806505;29;20053;-92
2021/10/16 03:21:56;;;;;;;20.95;9.75;;;;;;;9.59;63.38;99302.13;4775215;30;20391;-86
2021/10/16 03:24:31;;;;;;;27.20;10.18;;;;;;;9.62;63.42;99304.22;4819751;29;20459;-85
2021/10/16 03:26:57;;;;;;;23.58;10.02;;;;;;;9.49;63.46;99292.22;4792362;29;20107;-86
2021/10/16 03:29:23;;;;;;;18.53;9.70;;;;;;;9.49;63.63;99281.31;4809069;29;20051;-90
2021/10/16 03:31:50;;;;;;;22.98;10.50;;;;;;;9.67;63.26;99303.31;4781578;29;20066;-86
2021/10/16 03:34:17;;;;;;;23.45;10.20;;;;;;;9.68;63.15;99305.75;4792607;29;20047;-86
2021/10/16 03:36:44;;;;;;;21.38;10.32;;;;;;;9.72;63.16;99300.47;4778444;29;20046;-87
2021/10/16 03:39:10;;;;;;;24.08;11.32;;;;;;;9.73;62.97;99302.88;4777254;29;20150;-86
2021/10/16 03:41:37;;;;;;;30.85;11.43;;;;;;;9.48;63.26;99274.25;4775542;29;20524;-87
2021/10/16 03:44:03;;;;;;;20.90;11.93;;;;;;;9.72;63.14;99311.38;4807219;29;20138;-88
2021/10/16 03:46:30;;;;;;;20.95;9.85;;;;;;;9.44;63.07;99270.53;4774448;30;20076;-92
2021/10/16 03:49:14;;;;;;;28.45;11.35;;;;;;;9.68;63.29;99315.84;4798673;29;20047;-86
2021/10/16 03:51:41;;;;;;;23.10;10.60;;;;;;;9.64;63.30;99297.38;4807251;29;20087;-87
2021/10/16 03:55:06;;;;;;;20.23;11.15;;;;;;;9.69;63.28;99306.53;4774133;29;20054;-86
2021/10/16 03:57:33;;;;;;;32.33;13.00;;;;;;;9.59;63.26;99302.91;4806774;29;20137;-91
2021/10/16 03:59:59;;;;;;;18.33;10.50;;;;;;;9.65;62.90;99320.00;4805751;29;20490;-86
2021/10/16 04:02:28;;;;;;;22.88;10.00;;;;;;;9.65;63.13;99320.81;4806894;29;20672;-90
2021/10/16 04:04:54;;;;;;;23.47;10.77;;;;;;;9.65;62.82;99300.91;4806393;29;20043;-86
2021/10/16 04:10:46;;;;;;;23.35;10.35;;;;;;;9.46;62.50;99287.38;4803975;29;20059;-89
2021/10/16 04:13:13;;;;;;;21.05;10.30;;;;;;;9.65;62.42;99303.63;4808774;29;20070;-86
2021/10/16 04:15:44;;;;;;;33.13;11.00;;;;;;;9.59;62.40;99300.19;4778843;29;20390;-92
2021/10/16 04:18:10;;;;;;;21.17;10.27;;;;;;;9.60;62.62;99301.81;4775515;29;20035;-87
2021/10/16 04:20:37;;;;;;;21.55;10.45;;;;;;;9.67;62.18;99314.22;4776331;29;20039;-86
2021/10/16 04:23:04;;;;;;;20.98;10.35;;;;;;;9.48;62.32;99284.38;4806620;29;20126;-90
2021/10/16 04:25:30;;;;;;;24.13;11.05;;;;;;;9.46;62.33;99281.94;4807521;29;20051;-87
2021/10/16 04:27:57;;;;;;;;;;;;;;;9.64;62.11;99302.81;4791390;29;20042;-86
2021/10/16 04:30:33;;;;;;;19.20;10.18;;;;;;;9.58;62.04;99290.41;4792994;29;19981;-86
2021/10/16 04:33:03;;;;;;;22.90;10.45;;;;;;;9.69;62.32;99301.88;4774215;30;20055;-86
2021/10/16 04:35:29;;;;;;;19.30;10.75;;;;;;;9.48;62.06;99285.16;4767581;29;20047;-86
2021/10/16 04:38:01;;;;;;;24.38;10.98;;;;;;;9.64;62.35;99312.94;4807457;29;20062;-84
2021/10/16 04:40:31;;;;;;;23.10;10.50;;;;;;;9.65;62.06;99304.44;4821012;29;20102;-86
2021/10/16 04:43:01;;;;;;;26.90;10.10;;;;;;;9.66;61.92;99305.22;4773524;29;20421;-90
2021/10/16 04:45:32;;;;;;;22.90;10.63;;;;;;;9.68;61.75;99304.94;4806132;29;20047;-85
2021/10/16 04:47:59;;;;;;;;;;;;;;;9.71;62.12;99293.41;4776115;29;20039;-85
2021/10/16 04:50:25;;;;;;;25.27;10.77;;;;;;;9.67;62.14;99293.22;4806312;29;20007;-85
2021/10/16 04:52:52;;;;;;;;;;;;;;;9.70;61.91;99308.16;4805970;29;20057;-88
2021/10/16 04:55:40;;;;;;;27.05;9.68;;;;;;;9.60;62.28;99290.91;4807621;29;20425;-89
2021/10/16 04:58:06;;;;;;;20.88;9.35;;;;;;;9.59;61.77;99286.53;4807871;29;20207;-85
2021/10/16 05:00:38;;;;;;;19.17;9.32;;;;;;;9.72;61.67;99301.28;4807948;29;20047;-81
2021/10/16 05:03:09;;;;;;;21.55;9.98;;;;;;;9.80;62.33;99302.47;4806039;29;20100;-79
2021/10/16 05:05:36;;;;;;;;;;;;;;;9.86;61.91;99290.31;4804458;29;20058;-84
2021/10/16 05:08:07;;;;;;;23.38;11.05;;;;;;;9.90;61.46;99288.59;4804862;29;19925;-85
2021/10/16 05:10:34;;;;;;;25.38;9.82;;;;;;;9.95;61.34;99287.66;4804593;29;20054;-79
2021/10/16 05:13:01;;;;;;;30.92;11.63;;;;;;;9.92;61.30;99286.34;4805453;29;20053;-85
2021/10/16 05:15:28;;;;;;;26.98;9.55;;;;;;;9.82;61.25;99272.94;4804014;29;20038;-79
2021/10/16 05:17:54;;;;;;;21.63;9.67;;;;;;;9.79;61.37;99271.63;4803506;29;20057;-83
2021/10/16 05:20:27;;;;;;;23.23;11.10;;;;;;;9.81;61.39;99280.31;4804328;29;20053;-81
2021/10/16 05:22:54;;;;;;;26.02;10.38;;;;;;;9.77;61.39;99267.63;4804291;29;20055;-84
2021/10/16 05:25:20;;;;;;;25.27;10.57;;;;;;;9.86;61.54;99274.72;4788840;29;20047;-84
2021/10/16 05:27:49;;;;;;;27.63;10.88;;;;;;;9.96;61.29;99268.22;4803191;29;20118;-80
2021/10/16 05:30:17;;;;;;;25.30;10.27;;;;;;;10.00;60.77;99261.03;4803871;29;20514;-80
2021/10/16 05:32:45;;;;;;;27.45;11.32;;;;;;;9.99;61.08;99264.88;4789615;29;20055;-83
2021/10/16 05:35:13;;;;;;;21.48;10.02;;;;;;;9.95;60.88;99260.34;4788176;29;20413;-82
2021/10/16 05:37:41;;;;;;;26.90;10.70;;;;;;;10.00;61.20;99276.59;4802392;29;20118;-84
2021/10/16 05:40:08;;;;;;;20.17;9.88;;;;;;;9.96;61.07;99260.03;4800474;29;20421;-76
2021/10/16 05:42:35;;;;;;;26.77;10.68;;;;;;;9.93;60.93;99257.91;4802982;29;20055;-75
2021/10/16 05:45:05;;;;;;;19.25;9.02;;;;;;;10.04;60.83;99253.03;4803979;29;20043;-76
2021/10/16 05:47:36;;;;;;;23.67;10.07;;;;;;;10.11;60.30;99240.53;4803020;29;20135;-75
2021/10/16 05:50:06;;;;;;;19.77;10.05;;;;;;;10.20;60.37;99243.34;4803846;29;20057;-84
2021/10/16 05:52:32;;;;;;;20.92;10.02;;;;;;;10.26;60.36;99242.09;4803735;29;20095;-84
2021/10/16 05:54:58;;;;;;;28.83;11.47;;;;;;;10.30;59.98;99240.38;4804015;29;20050;-76
2021/10/16 05:57:26;;;;;;;19.17;9.95;;;;;;;10.41;60.37;99240.09;4804244;29;20429;-84
2021/10/16 05:59:52;;;;;;;21.20;9.80;;;;;;;10.49;59.80;99248.34;4804326;29;20038;-84
2021/10/16 06:02:19;;;;;;;23.50;10.15;;;;;;;10.49;59.66;99233.88;4803577;29;20050;-78
2021/10/16 06:04:49;;;;;;;23.52;9.93;;;;;;;10.60;59.42;99239.88;4804146;29;20094;-78
2021/10/16 06:07:17;;;;;;;28.73;11.30;;;;;;;10.57;59.44;99242.13;4802307;29;20042;-86
2021/10/16 06:09:45;;;;;;;21.60;9.27;;;;;;;10.39;59.30;99223.22;4805100;29;20050;-80
2021/10/16 06:12:13;;;;;;;19.13;9.27;;;;;;;10.49;59.31;99247.53;4803473;29;20433;-82
2021/10/16 06:14:40;;;;;;;;;;;;;;;10.55;59.31;99241.63;4804284;29;20129;-78
2021/10/16 06:17:23;;;;;;;27.95;10.40;;;;;;;10.57;59.18;99236.66;4803235;29;19925;-79
2021/10/16 06:19:52;;;;;;;20.25;9.38;;;;;;;10.72;59.09;99234.63;4804510;29;20054;-73
2021/10/16 06:22:18;;;;;;;23.48;11.05;;;;;;;10.79;58.55;99234.97;4803986;29;20525;-83
2021/10/16 06:24:45;;;;;;;;;;;;;;;10.80;58.63;99234.66;4803723;29;20433;-83
2021/10/16 06:27:11;;;;;;;23.17;9.03;;;;;;;10.73;58.58;99239.78;4803369;29;19929;-78
2021/10/16 06:29:37;;;;;;;22.77;9.60;;;;;;;10.87;58.74;99234.19;4804166;29;20078;-78
2021/10/16 06:32:03;;;;;;;24.52;9.73;;;;;;;10.89;58.25;99223.72;4802975;29;20505;-80
2021/10/16 06:34:30;;;;;;;21.42;9.40;;;;;;;10.90;57.75;99227.28;4803387;29;20058;-78
2021/10/16 06:36:56;;;;;;;19.83;8.52;;;;;;;10.92;58.09;99230.50;4803936;29;20043;-78
2021/10/16 06:39:23;;;;;;;23.52;9.07;;;;;;;10.84;58.10;99239.50;4804746;29;20062;-84
2021/10/16 06:41:56;;;;;;;22.45;10.02;;;;;;;10.86;58.13;99232.59;4806151;29;20544;-78
2021/10/16 06:44:49;;;;;;;21.10;9.68;;;;;;;10.81;58.26;99219.84;4805972;29;20074;-82
2021/10/16 06:47:42;;;;;;;18.17;8.88;;;;;;;10.88;58.04;99233.06;4805284;29;20046;-83
2021/10/16 06:50:26;;;;;;;23.10;8.75;;;;;;;10.93;57.78;99229.41;4808019;29;20080;-83
2021/10/16 06:52:53;;;;;;;16.85;10.25;;;;;;;10.97;57.76;99217.50;4806231;29;20598;-83
2021/10/16 06:55:23;;;;;;;16.08;8.80;;;;;;;10.93;57.23;99205.59;4806090;29;20417;-78
2021/10/16 06:57:49;;;;;;;24.45;9.70;;;;;;;11.09;57.13;99224.25;4791834;29;20119;-81
2021/10/16 07:00:15;;;;;;;22.52;9.60;;;;;;;11.10;57.45;99221.22;4807272;29;20505;-78
2021/10/16 07:02:45;;;;;;;23.50;8.65;;;;;;;11.04;56.86;99222.50;4807903;29;20050;-83
2021/10/16 07:05:15;;;;;;;24.98;9.68;;;;;;;11.08;57.04;99225.41;4807196;29;20050;-79
2021/10/16 07:07:41;;;;;;;20.35;9.32;;;;;;;11.14;56.80;99224.13;4806403;29;20042;-78
2021/10/16 07:10:07;;;;;;;22.40;9.57;;;;;;;11.22;56.71;99232.34;4808450;29;20078;-83
2021/10/16 07:12:35;;;;;;;22.10;9.30;;;;;;;11.30;56.62;99225.28;4807599;29;20053;-84
2021/10/16 07:15:01;;;;;;;23.83;9.80;;;;;;;11.40;56.11;99222.25;4807206;29;20061;-81
2021/10/16 07:17:29;;;;;;;27.23;9.55;;;;;;;11.47;55.61;99221.75;4806229;29;20050;-83
2021/10/16 07:19:55;;;;;;;18.50;8.38;;;;;;;11.51;55.25;99225.47;4805650;29;20492;-78
2021/10/16 07:22:23;;;;;;;26.92;10.18;;;;;;;11.53;54.69;99221.28;4807929;29;20045;-79
2021/10/16 07:24:50;;;;;;;19.73;9.57;;;;;;;11.58;54.44;99228.53;4806263;29;20096;-84
2021/10/16 07:27:16;;;;;;;22.77;10.37;;;;;;;11.61;54.48;99216.13;4807412;29;20062;-77
2021/10/16 07:29:43;;;;;;;20.48;9.43;;;;;;;11.71;54.34;99218.53;4807089;29;20077;-78
2021/10/16 07:32:09;;;;;;;20.48;9.38;;;;;;;11.78;53.93;99213.38;4807286;29;20521;-79
2021/10/16 07:34:35;;;;;;;21.27;9.55;;;;;;;11.75;53.57;99217.59;4806946;29;20055;-84
2021/10/16 07:37:02;;;;;;;19.23;9.25;;;;;;;11.79;53.54;99212.28;4806503;29;20459;-83
2021/10/16 07:39:28;;;;;;;20.87;9.93;;;;;;;11.81;53.37;99215.47;4806699;29;20049;-83
2021/10/16 07:41:55;;;;;;;19.80;9.32;;;;;;;11.77;53.32;99217.25;4806953;29;20047;-82
2021/10/16 07:44:21;;;;;;;21.40;9.30;;;;;;;11.69;53.57;99207.13;4807518;29;20049;-79
2021/10/16 07:46:48;;;;;;;21.15;9.35;;;;;;;11.66;53.42;99213.25;4806532;29;20050;-78
2021/10/16 07:49:14;;;;;;;29.53;10.20;;;;;;;11.60;53.29;99209.84;4806814;29;20049;-83
2021/10/16 07:51:41;;;;;;;;;;;;;;;11.51;53.12;99207.09;4806961;29;20310;-83
2021/10/16 07:54:07;;;;;;;24.57;9.67;;;;;;;11.50;52.91;99219.19;4806838;29;20094;-82
2021/10/16 07:56:33;;;;;;;24.85;9.82;;;;;;;11.59;53.18;99218.38;4806994;29;20142;-83
2021/10/16 07:58:59;;;;;;;23.13;9.27;;;;;;;11.59;53.06;99205.50;4790461;29;20450;-82
2021/10/16 08:01:26;;;;;;;;;;;;;;;11.57;52.81;99215.16;4791439;29;20082;-82
2021/10/16 08:03:52;;;;;;;21.55;9.45;;;;;;;11.52;52.56;99203.25;4806905;29;19928;-82
2021/10/16 08:06:21;;;;;;;19.95;9.10;;;;;;;11.56;52.32;99208.09;4806847;29;20042;-81
2021/10/16 08:08:47;;;;;;;24.17;9.18;;;;;;;11.60;52.64;99203.56;4789678;29;20517;-81
2021/10/16 08:11:35;;;;;;;16.80;9.27;;;;;;;11.63;52.34;99209.22;4806124;29;20159;-82
2021/10/16 08:14:01;;;;;;;31.83;9.30;;;;;;;11.62;52.20;99206.78;4806511;29;20529;-79
2021/10/16 08:16:27;;;;;;;21.10;9.00;;;;;;;11.69;52.49;99210.66;4775584;29;20433;-84
2021/10/16 08:18:57;;;;;;;18.70;8.70;;;;;;;11.64;51.58;99204.53;4790309;29;20520;-80
2021/10/16 08:21:23;;;;;;;19.50;9.05;;;;;;;11.71;52.24;99199.38;4806925;29;20050;-82
2021/10/16 08:23:49;;;;;;;25.63;9.68;;;;;;;11.73;52.40;99203.41;4775418;29;20585;-81
2021/10/16 08:26:15;;;;;;;18.80;9.07;;;;;;;11.81;51.95;99201.78;4806536;29;20154;-81
2021/10/16 08:28:42;;;;;;;26.17;9.40;;;;;;;11.91;51.44;99192.44;4805836;29;20043;-83
2021/10/16 08:31:08;;;;;;;23.63;10.48;;;;;;;11.93;50.92;99217.59;4810869;29;20107;-83
2021/10/16 08:33:37;;;;;;;28.58;10.50;;;;;;;11.97;51.21;99207.59;4813421;29;20042;-83
2021/10/16 08:36:05;;;;;;;26.52;11.85;;;;;;;11.95;51.23;99205.19;4807987;29;20107;-80
2021/10/16 08:38:33;;;;;;;27.95;11.68;;;;;;;12.02;50.89;99206.59;4805177;29;20050;-85
2021/10/16 08:40:59;;;;;;;29.00;11.27;;;;;;;12.05;50.84;99206.75;4806161;29;20047;-79
2021/10/16 08:43:25;;;;;;;31.40;11.60;;;;;;;12.19;50.80;99203.84;4806367;29;20088;-79
2021/10/16 08:45:52;;;;;;;39.50;13.32;;;;;;;12.21;51.38;99199.63;4790207;29;20421;-84
2021/10/16 08:48:18;;;;;;;39.30;12.07;;;;;;;12.32;50.63;99204.78;4805337;29;20034;-80
2021/10/16 08:50:47;;;;;;;27.80;11.75;;;;;;;12.29;50.85;99189.00;4805799;29;20301;-80
2021/10/16 08:53:13;;;;;;;22.17;9.52;;;;;;;12.35;50.68;99199.47;4805630;29;20096;-80
2021/10/16 08:55:40;;;;;;;23.63;10.43;;;;;;;12.42;50.28;99201.69;4805723;29;20054;-83
2021/10/16 08:58:07;;;;;;;25.63;9.45;;;;;;;12.53;50.07;99196.66;4805405;29;20050;-80
2021/10/16 09:00:38;;;;;;;29.88;10.02;;;;;;;12.57;49.69;99206.63;4789518;29;20050;-80
2021/10/16 09:03:21;;;;;;;17.98;9.02;;;;;;;12.55;49.31;99197.94;4789087;29;20046;-79
2021/10/16 09:06:09;;;;;;;39.33;8.60;;;;;;;12.62;49.37;99205.66;4805621;29;20050;-79
2021/10/16 09:09:12;;;;;;;30.73;9.70;;;;;;;12.59;49.25;99193.41;4788622;29;20050;-80
2021/10/16 09:11:44;;;;;;;24.30;9.48;;;;;;;12.57;49.06;99192.09;4745406;29;20054;-80
2021/10/16 09:14:13;;;;;;;25.77;10.07;;;;;;;12.61;48.51;99193.84;4789532;29;20053;-80
2021/10/16 09:16:47;;;;;;;19.75;9.48;;;;;;;12.70;48.70;99200.09;4805761;29;20541;-81
2021/10/16 09:19:24;;;;;;;19.65;9.13;;;;;;;12.72;47.73;99202.53;4805045;29;20058;-80
2021/10/16 09:21:56;;;;;;;21.67;9.43;;;;;;;12.74;47.59;99196.72;4805511;29;20051;-80
2021/10/16 09:24:30;;;;;;;19.05;8.80;;;;;;;12.75;46.76;99193.66;4805629;29;20046;-80
2021/10/16 09:27:09;;;;;;;27.02;9.75;;;;;;;12.86;46.82;99207.78;4805331;29;20085;-80
2021/10/16 09:29:38;;;;;;;23.75;10.45;;;;;;;12.83;46.12;99181.81;4803834;29;20054;-79
2021/10/16 09:32:09;;;;;;;27.60;9.63;;;;;;;12.85;45.70;99193.28;4804921;29;20505;-80
2021/10/16 09:34:37;;;;;;;19.08;9.57;;;;;;;12.84;46.18;99196.31;4805388;29;20074;-79
2021/10/16 09:37:15;;;;;;;24.45;9.18;;;;;;;12.79;45.34;99189.09;4805561;29;20402;-77
2021/10/16 09:39:54;;;;;;;18.83;9.63;;;;;;;12.68;45.32;99172.22;4805864;29;20091;-89
2021/10/16 09:42:29;;;;;;;31.35;9.60;;;;;;;12.86;45.62;99180.34;4800958;29;20072;-78
2021/10/16 09:45:00;;;;;;;22.13;9.93;;;;;;;12.83;45.88;99173.59;4804315;29;20054;-79
2021/10/16 09:47:27;;;;;;;20.92;8.68;;;;;;;12.76;44.41;99158.78;4803228;29;20541;-78
2021/10/16 09:49:58;;;;;;;21.30;9.23;;;;;;;12.60;44.71;99161.28;4804053;29;20557;-79
2021/10/16 09:52:37;;;;;;;21.23;8.63;;;;;;;12.77;45.11;99174.91;4803070;29;20043;-78
2021/10/16 09:55:06;;;;;;;22.00;8.57;;;;;;;12.78;44.40;99151.03;4805201;29;20082;-89
2021/10/16 09:57:32;;;;;;;23.02;9.43;;;;;;;12.83;44.48;99172.78;4806549;29;20043;-86
2021/10/16 09:59:59;;;;;;;23.50;8.52;;;;;;;12.85;44.21;99168.59;4807359;29;20038;-90
2021/10/16 10:02:29;;;;;;;18.77;8.95;;;;;;;12.85;44.51;99157.59;4801821;29;20086;-80
2021/10/16 10:04:56;;;;;;;22.60;9.20;;;;;;;12.87;44.47;99173.72;4800481;29;20042;-83
2021/10/16 10:07:24;;;;;;;22.70;9.23;;;;;;;12.92;44.25;99165.31;4791750;29;20039;-80
2021/10/16 10:09:52;;;;;;;20.92;9.40;;;;;;;12.96;44.56;99166.25;4794250;29;20047;-79
2021/10/16 10:12:18;;;;;;;19.58;8.57;;;;;;;12.89;44.33;99144.84;4818063;29;20070;-88
2021/10/16 10:14:48;;;;;;;24.38;10.35;;;;;;;12.92;44.17;99163.38;4766636;29;20096;-89
2021/10/16 10:17:19;;;;;;;17.60;8.45;;;;;;;12.93;44.54;99164.16;4787955;29;20042;-80
2021/10/16 10:19:50;;;;;;;20.00;8.70;;;;;;;12.88;44.59;99153.38;4787170;29;20058;-78
2021/10/16 10:22:18;;;;;;;21.77;8.00;;;;;;;12.92;43.83;99159.81;4801254;29;20099;-74
2021/10/16 10:24:50;;;;;;;21.15;9.10;;;;;;;12.91;44.27;99145.31;4799392;29;20108;-84
2021/10/16 10:27:20;;;;;;;15.40;7.70;;;;;;;12.87;44.33;99157.25;4787761;29;20047;-73
2021/10/16 10:29:50;;;;;;;21.40;8.52;;;;;;;12.91;44.27;99147.22;4772341;29;20043;-76
2021/10/16 10:32:20;;;;;;;22.63;8.50;;;;;;;12.90;43.97;99149.16;4788250;29;20260;-75
2021/10/16 10:34:59;;;;;;;19.95;8.98;;;;;;;12.85;43.90;99149.38;4785072;29;20138;-76
2021/10/16 10:37:37;;;;;;;19.33;8.13;;;;;;;12.73;44.03;99143.78;4782724;29;20056;-76
2021/10/16 10:40:25;;;;;;;24.60;8.85;;;;;;;12.86;44.47;99159.22;4792198;29;20085;-76
2021/10/16 10:42:54;;;;;;;21.50;8.90;;;;;;;12.88;44.27;99159.69;4796942;29;20490;-74
2021/10/16 10:45:33;;;;;;;17.95;9.15;;;;;;;12.93;44.58;99150.44;4794444;29;20418;-75
2021/10/16 10:48:03;;;;;;;22.02;9.82;;;;;;;12.95;43.99;99150.94;4793804;29;20046;-75
2021/10/16 10:50:56;;;;;;;27.58;11.52;;;;;;;12.94;43.58;99147.38;4769510;29;20039;-74
2021/10/16 10:53:27;;;;;;;19.67;9.57;;;;;;;12.95;43.84;99134.47;4800935;29;20104;-75
2021/10/16 10:55:58;;;;;;;15.55;8.45;;;;;;;12.91;43.72;99142.56;4801945;29;20078;-76
2021/10/16 10:59:10;;;;;;;21.77;9.32;;;;;;;13.01;44.03;99152.31;4802036;29;20164;-77
2021/10/16 11:01:44;;;;;;;19.00;8.77;;;;;;;13.07;44.13;99152.94;4822828;29;20064;-84
2021/10/16 11:04:31;;;;;;;19.33;8.95;;;;;;;13.11;43.76;99145.63;4806281;29;20049;-77
2021/10/16 11:07:03;;;;;;;21.88;9.63;;;;;;;13.10;43.22;99142.09;4806663;29;20050;-78
2021/10/16 11:09:30;;;;;;;24.25;9.57;;;;;;;13.17;43.62;99149.78;4815663;29;20035;-77
2021/10/16 11:11:56;;;;;;;22.10;9.38;;;;;;;13.12;43.35;99155.50;4804589;29;20097;-79
2021/10/16 11:14:29;;;;;;;24.52;8.93;;;;;;;13.11;43.60;99153.88;4804406;29;20076;-78
2021/10/16 11:17:01;;;;;;;30.13;9.60;;;;;;;13.08;43.61;99146.34;4800755;29;20340;-76
2021/10/16 11:19:28;;;;;;;18.67;8.85;;;;;;;13.05;43.17;99155.22;4790749;29;20069;-77
2021/10/16 11:21:58;;;;;;;30.63;10.80;;;;;;;12.92;43.58;99141.44;4804107;29;20042;-76
2021/10/16 11:24:27;;;;;;;18.75;9.05;;;;;;;13.03;44.15;99143.78;4804923;29;20045;-76
2021/10/16 11:26:58;;;;;;;20.02;9.27;;;;;;;13.04;43.46;99134.41;4804014;29;20501;-77
2021/10/16 11:29:40;;;;;;;24.77;9.38;;;;;;;13.08;44.09;99132.63;4805224;29;20428;-79
2021/10/16 11:32:13;;;;;;;20.13;9.20;;;;;;;13.00;43.54;99142.50;4790633;30;20062;-80
2021/10/16 11:35:04;;;;;;;25.60;9.38;;;;;;;13.03;44.30;99147.31;4800870;29;20241;-86
2021/10/16 11:37:48;;;;;;;24.25;10.32;;;;;;;13.03;44.37;99141.81;4788253;29;20062;-73
2021/10/16 11:40:17;;;;;;;18.42;9.02;;;;;;;13.29;44.12;99141.66;4803113;29;20039;-73
2021/10/16 11:42:51;;;;;;;25.70;9.45;;;;;;;13.54;44.98;99147.28;4801134;29;20052;-74
2021/10/16 11:45:22;;;;;;;32.20;9.93;;;;;;;13.60;42.91;99140.44;4789826;29;20047;-75